Timeline UpdatesTrip UpdatesNews PostsPvt PostsTravel TipsAdmin PostsConv PostsFollowed PostsChat RequestsBlog PostsPNR Posts

Disclaimer
Search
 
 
Fri Aug 22, 2014 19:16:26 ISTHomeTrainsΣChainsAtlasPNRForumGalleryNewsFAQTripsMembersLoginFeedback
No Recent News for this Train
Other Trains in the News **new
Latest...
.
Sat Apr 26, 2014 (07:41PM)
⇐ Return Journey: Train# 16507

16508/Bangalore - Bhagat Ki Kothi Express

Aug 11 (2:13PM)
Change Departure Station:
Change Arrival Station:
Post a Train Travel TipPost a Train Travel Tip **new
Post a Comment/Question/Picture/VideoPost a Comment/Question/Picture/Video
Pantry/Catering
✓ Pantry Car Avbl
✓ Catering Avbl
good
RSA - Rake Sharing
Rake/Coach Composition
Loco-[SLR]-[UR]-[UR]-[A1]-[A2]-[B1]-[B2]-[B3]-[S1]-[S2]-[S3]-[PC]-[S4]-[S5]-[S6]-[S7]-[S8]-[S9]-[S10]-[S11]-[S12][UR]-[SLR]
Loco
Hubli shed WDP-4
News    PNR    Forum    Time-Table    Availability    Fare Chart    Map    Arr/Dep History    Trips    Gallery    ΣChains    X/O    Timeline    
Travel Time: 8h 30m    9 halts    Distance: 470 km    Avg Speed: 55 km/hr
Type: Mail/Express
Zone: SWR/South Western
Departs @ 21:55 (Avg 1m late)
Platform# 8
 M W   
Bangalore City Junction/SBC 
Arrives @ 06:25 +1 night (Avg 12m late)
Platform# 1
  T T  
Hubli Junction/UBL 

9 halts. 64 intermediate Stations between Bangalore City Junction and Hubli Junction

Show ALL intermediate Stations  Show Old Time-Table

#CodeStation NameX/OArrivesAvgDepartsAvgHaltPFDay#KmSpeedElevZoneAddress
1SBC»Bangalore City Junction (10)»  -21:55+1810.034903mSWRBengaluru-560023, Karnataka
2YPRYesvantpur Junction (6)22:05+422:07+42m315.669919mSWRBengaluru 560022, Karnataka
3TKTumkur (3)  23:03+523:05+62m1169.571823mSWRTumkur, Karnataka
4TTRTiptur (4)  00:05+1100:06+151m22140.639860mSWRTiptur, Karnataka
5ASKArsikere Junction (3)X  00:45+600:50+105m--2166.156816mSWRArsikere, Karnataka
6RRBBirur Junction (3)X  01:38+601:40+82m12211.164802mSWRBirur, Karnataka
7DVGDavangere (2)  03:27+3203:30+323m--2326.043598mSWRDavanagere, Karnataka
8HRRHarihar (3)  03:48+3103:50+322m--2338.958553mSWRHarihar, Karnataka
9RNRRanibennur (3)X  04:14+3004:15+311m--2362.267583mSWRRanebennur, Karnataka
10HVRHaveri (3)  04:44+3604:45+361m--2394.845558mSWRHaveri, Karnataka
11UBL•Hubli Junction (5)•  06:25+1206:35+2210m12469.950640mSWRHubli - 580020, Karnataka
12DWRDharwad (4)  06:59+3607:00+361m12489.951737mSWRDharwad 580001, Karnataka
13LDLonda Junction (3)  08:23+3308:25+342m22560.444643mSWRLonda, Karnataka
14BGMBelgaum (3)  09:35+3409:40+385m12611.750752mSWRBelgaum 590001, Karnataka
15GPBGhatprabha (2)  10:49-10:50-1m12669.543621mSWRGhatprabha, Karnataka
16MRJMiraj Junction (6)  12:40+1212:45+185m12749.137554mCRMiraj 416410, Maharashtra
17SLISangli (3)  12:57+2113:00+223m12756.469559mCRSangli, Maharashtra
18KRDKarad (3)  13:59+2614:00+281m12824.359597mCRDist- Satara., Maharashtra
19STRSatara (3)  15:00+2915:03+293m22882.940637mCRSatara, Maharashtra
20PUNEPune Junction (6)  18:40+718:50+1010m321028.755556mCRPune 411001, Maharashtra
21LNLLonavala (3)  19:59+620:00+101m221092.335623mCRLonavala 410401, Maharashtra
22KJTKarjat Junction (4)  20:49+1720:50+201m221121.05657mCRKarjat, Maharashtra
23KYNKalyan Junction (8)X  21:40+2021:45+175m621167.84510mCRKalyan 421301, Maharashtra
24BIRDBhiwandi Road (4)  22:09+2922:10+311m--21185.84126mCRBhiwandi, Maharashtra
25BSRVasai Road (7)  22:50+322:55+05m621213.1647mWRVasai 401202, Maharashtra
26VAPIVapi (3)X  00:49+1900:50+201m--31334.16327mWRVapi, Gujarat
27BLValsad (3)X  01:15+2201:16+241m231360.44315mWRValsad, Gujarat
28NVSNavsari (3)XO  02:10+1302:11+151m131399.55214mWRNavsari, Gujarat
29STSurat (4)XO  02:45+1102:55+1110m331429.17919mWRSurat 395001, Gujarat
30BHBharuch Junction (5)X  03:40+2003:41+211m331488.47419mWRBharuch, Gujarat
31BRCVadodara Junction (7)X  04:38+3204:55+2717m231558.96536mWRVadodara 390005, Gujarat
32ANNDAnand Junction (6)XO  05:28+505:29+51m--31594.66944mWRAnand, Gujarat
33NDNadiad Junction (4)  05:45+1105:46+111m--31613.14637mWRNadiad, Gujarat
34ADIAhmedabad Junction (12)X  06:45+4507:05+5020m631658.73351mWRAhmedabad, Gujarat
35MSHMahesana Junction (6)  09:19+3609:20+371m--31731.76595mWRMehsana, Gujarat
36SIDSiddhpur  09:53+3609:54+371m--31767.332136mWRState Highway 41, Gujarat
37PNUPalanpur Junction (5)X  10:49+1610:50+201m--31796.757216mWRPalanpur, Gujarat
38ABRAbu Road (3)X  11:45+3411:55+3610m231849.370264mNWRSirohi Dist, Rajasthan
39JWBJawai BandhX  13:06+4313:07+441m--31932.049292mNWRPali, Rajasthan
40FAFalna (2)  13:27+3813:28+391m--31948.249282mNWRFalna, Rajasthan
41MJMarwar Junction (4)  14:50+1314:55+145m132014.781267mNWRMarwar Junction, Rajasthan
42PMYPali Marwar (2)  15:18+2515:19+281m132045.675221mNWRPali, Rajasthan
43LUNILuni Junction (3)X  15:52+2815:55+273m--32086.842180mNWRLuni, Rajasthan
44BGKTBhagat Ki Kothi (3)  16:35+16---32115.1-229mNWRJodhpur, Rajasthan
Scroll to Top
Scroll to Bottom